Time;durP1;ratioP1;P1;durP2;ratioP2;P2;SDS_P1;SDS_P2;PMS_P1;PMS_P2;Temp;Humidity;BMP_temperature;BMP_pressure;BME280_temperature;BME280_humidity;BME280_pressure;Samples;Min_cycle;Max_cycle;Signal;HPM_P1;HPM_P2
2023/06/06 00:01:52;;;;;;;7.70;5.15;;;11.90;99.90;;;;;;6188339;23;20017;-64
2023/06/06 00:04:18;;;;;;;10.25;5.05;;;11.80;99.90;;;;;;6189177;23;20017;-65
2023/06/06 00:06:44;;;;;;;10.88;4.65;;;11.90;99.90;;;;;;6160797;23;20035;-64
2023/06/06 00:09:10;;;;;;;9.30;5.32;;;11.90;99.90;;;;;;6189530;23;20024;-64
2023/06/06 00:11:39;;;;;;;8.82;5.35;;;11.90;99.90;;;;;;6187072;23;20079;-64
2023/06/06 00:14:07;;;;;;;6.70;5.00;;;11.80;99.90;;;;;;6188848;23;20260;-64
2023/06/06 00:16:34;;;;;;;11.55;5.10;;;11.80;99.90;;;;;;6188478;23;20021;-64
2023/06/06 00:19:00;;;;;;;8.25;5.03;;;11.80;99.90;;;;;;6188338;23;20025;-64
2023/06/06 00:21:27;;;;;;;7.97;4.55;;;11.80;99.90;;;;;;6162281;23;20032;-64
2023/06/06 00:23:55;;;;;;;8.93;4.72;;;11.80;99.90;;;;;;6187442;23;20017;-64
2023/06/06 00:26:20;;;;;;;11.73;5.88;;;11.80;99.90;;;;;;6188924;23;20075;-65
2023/06/06 00:28:46;;;;;;;9.80;5.05;;;11.70;99.90;;;;;;6160614;23;20021;-64
2023/06/06 00:31:13;;;;;;;8.65;4.80;;;11.70;99.90;;;;;;6162261;23;20032;-65
2023/06/06 00:33:39;;;;;;;8.30;5.20;;;11.70;99.90;;;;;;6188291;23;20021;-64
2023/06/06 00:36:05;;;;;;;7.38;5.13;;;11.70;99.90;;;;;;6161652;23;20081;-65
2023/06/06 00:38:32;;;;;;;9.90;5.05;;;11.60;99.90;;;;;;6189235;23;20017;-64
2023/06/06 00:40:58;;;;;;;11.57;4.78;;;11.60;99.90;;;;;;6185625;23;20759;-64
2023/06/06 00:43:23;;;;;;;11.32;5.53;;;11.60;99.90;;;;;;6189398;23;20024;-64
2023/06/06 00:45:50;;;;;;;11.90;6.35;;;11.50;99.90;;;;;;6187022;23;20024;-64
2023/06/06 00:48:18;;;;;;;8.82;4.80;;;11.50;99.90;;;;;;6199572;23;20036;-64
2023/06/06 00:50:47;;;;;;;10.38;4.95;;;11.50;99.90;;;;;;6200640;23;20021;-64
2023/06/06 00:53:13;;;;;;;7.88;5.05;;;11.50;99.90;;;;;;6192214;23;20048;-64
2023/06/06 00:55:41;;;;;;;9.77;5.35;;;11.40;99.90;;;;;;6189173;23;20021;-64
2023/06/06 00:58:08;;;;;;;8.18;5.57;;;11.40;99.90;;;;;;6187267;23;20079;-64
2023/06/06 01:00:34;;;;;;;10.38;5.45;;;11.30;99.90;;;;;;6188930;23;20016;-64
2023/06/06 01:03:04;;;;;;;15.35;5.85;;;11.30;99.90;;;;;;6186750;23;20048;-65
2023/06/06 01:05:30;;;;;;;11.57;5.72;;;11.30;99.90;;;;;;6188517;23;20017;-64
2023/06/06 01:07:58;;;;;;;10.32;5.68;;;11.30;99.90;;;;;;6187592;23;20044;-64
2023/06/06 01:10:24;;;;;;;10.57;6.07;;;11.30;99.90;;;;;;6187322;23;20048;-64
2023/06/06 01:13:26;;;;;;;9.80;6.18;;;11.30;99.90;;;;;;6162117;23;20021;-64
2023/06/06 01:15:55;;;;;;;9.10;5.47;;;11.30;99.90;;;;;;6187023;23;20032;-65
2023/06/06 01:18:22;;;;;;;10.60;6.35;;;11.20;99.90;;;;;;6188543;23;20025;-64
2023/06/06 01:20:49;;;;;;;9.65;6.07;;;11.20;99.90;;;;;;6188007;23;20024;-64
2023/06/06 01:23:15;;;;;;;12.90;6.65;;;11.20;99.90;;;;;;6189481;23;20025;-64
2023/06/06 01:25:45;;;;;;;9.30;5.72;;;11.20;99.90;;;;;;6192926;23;20073;-65
2023/06/06 01:28:13;;;;;;;10.90;6.47;;;11.20;99.90;;;;;;6197374;23;20101;-65
2023/06/06 01:30:44;;;;;;;11.23;6.15;;;11.20;99.90;;;;;;6198829;23;20017;-65
2023/06/06 01:33:15;;;;;;;10.27;6.28;;;11.20;99.90;;;;;;6197010;23;20017;-65
2023/06/06 01:35:44;;;;;;;11.93;7.63;;;11.20;99.90;;;;;;6196578;23;20052;-65
2023/06/06 01:38:21;;;;;;;10.88;6.72;;;11.10;99.90;;;;;;6190284;23;20025;-64
2023/06/06 01:40:54;;;;;;;11.25;6.25;;;11.10;99.90;;;;;;6187665;23;20096;-64
2023/06/06 01:43:23;;;;;;;11.38;6.38;;;11.10;99.90;;;;;;6188733;23;20167;-64
2023/06/06 01:45:50;;;;;;;11.82;7.03;;;11.20;99.90;;;;;;6186227;23;20040;-64
2023/06/06 01:48:18;;;;;;;11.98;7.32;;;11.10;99.90;;;;;;6188513;23;20051;-64
2023/06/06 01:50:44;;;;;;;14.13;8.60;;;11.10;99.90;;;;;;6187203;23;20028;-64
2023/06/06 01:53:10;;;;;;;14.07;9.02;;;11.10;99.90;;;;;;6189396;23;20017;-64
2023/06/06 01:55:39;;;;;;;11.55;7.72;;;11.10;99.90;;;;;;6190414;23;20089;-64
2023/06/06 01:58:05;;;;;;;16.30;7.55;;;11.10;99.90;;;;;;6189031;23;20089;-64
2023/06/06 02:00:31;;;;;;;15.45;7.57;;;11.10;99.90;;;;;;6190669;23;20020;-65
2023/06/06 02:02:59;;;;;;;12.60;8.55;;;11.10;99.90;;;;;;6188759;23;20017;-64
2023/06/06 02:05:25;;;;;;;13.13;7.55;;;11.10;99.90;;;;;;6190504;23;20065;-64
2023/06/06 02:07:51;;;;;;;16.67;8.95;;;11.00;99.90;;;;;;6162392;23;20032;-64
2023/06/06 02:10:19;;;;;;;15.98;9.18;;;11.00;99.90;;;;;;6163258;23;20021;-65
2023/06/06 02:12:45;;;;;;;15.32;8.98;;;11.00;99.90;;;;;;6190742;23;20021;-64
2023/06/06 02:15:13;;;;;;;15.02;9.35;;;10.80;99.90;;;;;;6189121;23;20048;-64
2023/06/06 02:17:39;;;;;;;16.77;8.95;;;11.00;99.90;;;;;;6190963;23;20013;-64
2023/06/06 02:20:07;;;;;;;17.95;9.50;;;10.90;99.90;;;;;;6188669;23;20447;-64
2023/06/06 02:22:33;;;;;;;16.60;8.50;;;10.80;99.90;;;;;;6190102;23;20017;-64
2023/06/06 02:25:03;;;;;;;14.25;8.70;;;10.80;99.90;;;;;;6189239;23;20021;-64
2023/06/06 02:27:30;;;;;;;13.00;8.10;;;10.80;99.90;;;;;;6189831;23;20013;-64
2023/06/06 02:29:57;;;;;;;14.00;8.40;;;10.80;99.90;;;;;;6190501;23;20049;-64
2023/06/06 02:32:23;;;;;;;15.02;8.73;;;10.80;99.90;;;;;;6188312;23;20561;-64
2023/06/06 02:34:50;;;;;;;13.65;8.15;;;10.80;99.90;;;;;;6190282;23;20017;-64
2023/06/06 02:37:16;;;;;;;14.15;7.32;;;10.80;99.90;;;;;;6187903;23;20025;-64
2023/06/06 02:39:41;;;;;;;11.45;7.60;;;10.80;99.90;;;;;;6163474;23;20017;-65
2023/06/06 02:42:08;;;;;;;12.18;7.30;;;10.80;99.90;;;;;;6188810;23;20029;-65
2023/06/06 02:44:33;;;;;;;13.77;8.10;;;10.70;99.90;;;;;;6189057;23;20013;-64
2023/06/06 02:46:59;;;;;;;10.65;6.68;;;10.70;99.90;;;;;;6190113;23;20075;-64
2023/06/06 02:49:27;;;;;;;12.35;6.80;;;10.70;99.90;;;;;;6188080;23;20020;-64
2023/06/06 02:51:56;;;;;;;13.15;6.68;;;10.70;99.90;;;;;;6189913;23;20099;-65
2023/06/06 02:54:22;;;;;;;10.20;6.82;;;10.60;99.90;;;;;;6187915;23;20021;-64
2023/06/06 02:56:47;;;;;;;12.57;6.53;;;10.70;99.90;;;;;;6189741;23;20096;-64
2023/06/06 02:59:13;;;;;;;10.70;6.30;;;10.60;99.90;;;;;;6188674;23;20017;-64
2023/06/06 03:01:44;;;;;;;13.43;6.05;;;10.70;99.90;;;;;;6188977;23;20029;-64
2023/06/06 03:04:14;;;;;;;10.95;6.20;;;10.70;99.90;;;;;;6189655;23;20073;-65
2023/06/06 03:06:40;;;;;;;11.50;6.95;;;10.70;99.90;;;;;;6161425;23;20099;-64
2023/06/06 03:09:07;;;;;;;10.00;6.63;;;10.60;99.90;;;;;;6190002;23;20251;-64
2023/06/06 03:11:34;;;;;;;14.02;6.40;;;10.60;99.90;;;;;;6187253;23;20017;-65
2023/06/06 03:14:00;;;;;;;13.82;7.05;;;10.60;99.90;;;;;;6189569;23;20024;-64
2023/06/06 03:16:26;;;;;;;12.77;6.97;;;10.50;99.90;;;;;;6188175;23;20017;-65
2023/06/06 03:18:52;;;;;;;10.15;6.93;;;10.50;99.90;;;;;;6188801;23;20137;-64
2023/06/06 03:21:22;;;;;;;12.63;6.93;;;10.50;99.90;;;;;;6189222;23;20037;-64
2023/06/06 03:23:48;;;;;;;11.23;6.70;;;10.50;99.90;;;;;;6187371;23;20458;-64
2023/06/06 03:26:16;;;;;;;14.02;6.80;;;10.50;99.90;;;;;;6189355;23;20017;-64
2023/06/06 03:28:42;;;;;;;11.38;6.65;;;10.50;99.90;;;;;;6187736;23;20040;-64
2023/06/06 03:31:08;;;;;;;9.95;6.22;;;10.50;99.90;;;;;;6189294;23;20025;-64
2023/06/06 03:33:37;;;;;;;13.27;7.03;;;10.50;99.90;;;;;;6161977;23;20020;-65
2023/06/06 03:36:09;;;;;;;11.80;7.25;;;10.50;99.90;;;;;;6188472;23;20120;-64
2023/06/06 03:38:35;;;;;;;11.20;6.43;;;10.40;99.90;;;;;;6163145;23;20063;-65
2023/06/06 03:41:02;;;;;;;10.95;6.75;;;10.50;99.90;;;;;;6187659;23;20455;-65
2023/06/06 03:43:31;;;;;;;14.20;6.90;;;10.50;99.90;;;;;;6189463;23;20017;-64
2023/06/06 03:45:57;;;;;;;14.13;6.50;;;10.50;99.90;;;;;;6195606;23;20100;-64
2023/06/06 03:48:22;;;;;;;12.70;6.38;;;10.60;99.90;;;;;;6195162;23;20021;-64
2023/06/06 03:50:48;;;;;;;12.27;6.43;;;10.60;99.90;;;;;;6188638;23;20347;-64
2023/06/06 03:53:14;;;;;;;16.15;6.28;;;10.60;99.90;;;;;;6188511;23;20021;-64
2023/06/06 03:55:40;;;;;;;13.93;6.50;;;10.70;99.90;;;;;;6189762;23;20075;-65
2023/06/06 03:58:07;;;;;;;11.95;6.20;;;10.70;99.90;;;;;;6187380;23;20051;-64
2023/06/06 04:00:33;;;;;;;13.85;6.78;;;10.70;99.90;;;;;;6189789;23;20060;-64
2023/06/06 04:02:58;;;;;;;13.45;7.30;;;10.80;99.90;;;;;;6187231;23;20072;-64
2023/06/06 04:05:24;;;;;;;12.32;6.53;;;10.80;99.90;;;;;;6188973;23;20072;-64
2023/06/06 04:07:50;;;;;;;14.70;7.00;;;10.80;99.90;;;;;;6188418;23;20021;-64
2023/06/06 04:10:16;;;;;;;11.52;6.55;;;10.90;99.90;;;;;;6188475;23;20025;-65
2023/06/06 04:12:41;;;;;;;13.10;6.18;;;11.00;99.90;;;;;;6162521;23;20021;-65
2023/06/06 04:15:10;;;;;;;15.85;6.75;;;11.00;99.90;;;;;;6187067;23;20101;-65
2023/06/06 04:17:35;;;;;;;9.52;6.13;;;11.10;99.90;;;;;;6189383;23;20447;-65
2023/06/06 04:20:05;;;;;;;11.90;6.43;;;11.20;99.90;;;;;;6187477;23;20463;-64
2023/06/06 04:22:31;;;;;;;11.52;5.78;;;11.30;99.90;;;;;;6190509;23;20021;-64
2023/06/06 04:24:57;;;;;;;13.70;6.03;;;11.30;99.90;;;;;;6201604;23;20017;-65
2023/06/06 04:27:23;;;;;;;15.15;6.70;;;11.40;99.90;;;;;;6202207;23;20068;-65
2023/06/06 04:29:50;;;;;;;14.88;6.43;;;11.40;99.90;;;;;;6198889;23;20021;-65
2023/06/06 04:32:18;;;;;;;11.18;6.28;;;11.50;99.90;;;;;;6197135;23;20048;-65
2023/06/06 04:34:45;;;;;;;10.70;6.13;;;11.60;99.90;;;;;;6197975;23;20076;-64
2023/06/06 04:37:13;;;;;;;10.13;6.22;;;11.60;99.90;;;;;;6188682;23;20021;-65
2023/06/06 04:39:40;;;;;;;16.13;6.63;;;11.70;99.90;;;;;;6190154;23;20029;-64
2023/06/06 04:42:06;;;;;;;12.45;6.40;;;11.80;99.90;;;;;;6188140;23;20124;-64
2023/06/06 04:44:33;;;;;;;12.23;6.45;;;11.90;99.90;;;;;;6136780;23;20021;-64
2023/06/06 04:47:03;;;;;;;14.25;6.07;;;11.90;99.90;;;;;;6162756;23;20033;-64
2023/06/06 04:49:35;;;;;;;13.88;7.28;;;12.00;99.90;;;;;;6188536;23;20073;-64
2023/06/06 04:52:05;;;;;;;13.48;7.35;;;12.20;99.90;;;;;;6164784;23;20092;-65
2023/06/06 04:54:32;;;;;;;9.00;5.85;;;12.20;99.90;;;;;;6160244;23;20139;-65
2023/06/06 04:56:58;;;;;;;10.65;7.25;;;12.40;99.90;;;;;;6188626;23;20452;-64
2023/06/06 04:59:24;;;;;;;8.65;6.15;;;12.40;99.90;;;;;;6187849;23;20024;-64
2023/06/06 05:01:51;;;;;;;13.90;6.90;;;12.50;99.90;;;;;;6187412;23;20028;-64
2023/06/06 05:04:17;;;;;;;15.13;7.57;;;12.50;99.90;;;;;;6188718;23;20027;-64
2023/06/06 05:06:43;;;;;;;12.13;7.45;;;12.60;99.90;;;;;;6186586;23;20017;-64
2023/06/06 05:09:09;;;;;;;11.57;6.80;;;12.60;99.90;;;;;;6188766;23;20017;-64
2023/06/06 05:11:35;;;;;;;11.43;6.88;;;12.70;99.90;;;;;;6186587;23;20463;-64
2023/06/06 05:14:01;;;;;;;12.05;7.03;;;12.80;99.90;;;;;;6188462;23;20028;-64
2023/06/06 05:16:27;;;;;;;16.40;7.53;;;12.80;99.90;;;;;;6187228;23;20354;-65
2023/06/06 05:18:53;;;;;;;16.90;7.70;;;12.80;99.90;;;;;;6187797;23;20075;-64
2023/06/06 05:21:19;;;;;;;14.63;8.00;;;12.90;99.90;;;;;;6188456;23;20053;-64
2023/06/06 05:23:45;;;;;;;14.60;6.90;;;13.00;99.90;;;;;;6186522;23;20025;-65
2023/06/06 05:26:11;;;;;;;14.10;7.43;;;13.20;99.90;;;;;;6188616;23;20025;-64
2023/06/06 05:28:38;;;;;;;15.55;7.57;;;13.20;99.90;;;;;;6186465;23;20024;-64
2023/06/06 05:31:07;;;;;;;11.40;7.45;;;13.30;99.90;;;;;;6188225;23;20017;-64
2023/06/06 05:33:42;;;;;;;21.88;7.88;;;13.40;99.90;;;;;;6187403;23;20044;-64
2023/06/06 05:36:08;;;;;;;19.83;7.93;;;13.30;99.90;;;;;;6187631;23;20411;-64
2023/06/06 05:38:33;;;;;;;15.35;7.32;;;13.40;99.90;;;;;;6188429;23;20095;-65
2023/06/06 05:40:59;;;;;;;12.60;7.43;;;13.50;99.90;;;;;;6186689;23;20021;-64
2023/06/06 05:43:28;;;;;;;14.20;7.65;;;13.50;99.90;;;;;;6188483;23;20425;-65
2023/06/06 05:45:53;;;;;;;11.50;7.65;;;13.70;99.90;;;;;;6185949;23;20025;-65
2023/06/06 05:48:19;;;;;;;11.52;6.38;;;13.70;99.90;;;;;;6188315;23;20101;-65
2023/06/06 05:50:45;;;;;;;16.60;7.95;;;13.70;99.90;;;;;;6187644;23;20028;-64
2023/06/06 05:53:11;;;;;;;19.58;10.60;;;13.80;99.90;;;;;;6187502;23;20104;-65
2023/06/06 05:55:36;;;;;;;14.38;7.60;;;13.80;99.90;;;;;;6188740;23;20017;-65
2023/06/06 05:58:03;;;;;;;17.52;8.18;;;13.90;99.90;;;;;;6186432;23;20055;-65
2023/06/06 06:00:32;;;;;;;13.75;7.88;;;14.00;99.90;;;;;;6188399;23;20056;-65
2023/06/06 06:03:00;;;;;;;19.02;9.05;;;14.00;99.90;;;;;;6186576;23;20017;-65
2023/06/06 06:05:29;;;;;;;13.60;8.15;;;14.00;99.90;;;;;;6188587;23;20384;-65
2023/06/06 06:07:59;;;;;;;17.02;10.20;;;14.00;99.90;;;;;;6162111;23;20035;-65
2023/06/06 06:10:29;;;;;;;17.95;10.15;;;14.00;99.90;;;;;;6187298;23;20564;-65
2023/06/06 06:12:55;;;;;;;19.15;9.05;;;14.10;99.90;;;;;;6188396;23;20499;-65
2023/06/06 06:15:21;;;;;;;18.35;8.93;;;14.20;99.90;;;;;;6186199;23;20395;-65
2023/06/06 06:17:48;;;;;;;20.42;9.55;;;14.30;99.90;;;;;;6188210;23;20013;-65
2023/06/06 06:20:15;;;;;;;17.05;9.02;;;14.40;99.90;;;;;;6186473;23;20395;-65
2023/06/06 06:22:42;;;;;;;16.45;10.05;;;14.40;99.90;;;;;;6161362;23;20024;-65
2023/06/06 06:25:12;;;;;;;14.48;9.73;;;14.40;99.90;;;;;;6187137;23;20059;-66
2023/06/06 06:27:42;;;;;;;15.40;8.40;;;14.40;99.90;;;;;;6187122;23;20017;-65
2023/06/06 06:30:09;;;;;;;14.55;7.88;;;14.50;99.90;;;;;;6186865;23;20980;-66
2023/06/06 06:32:37;;;;;;;15.93;9.27;;;14.60;99.90;;;;;;6185668;23;20077;-66
2023/06/06 06:35:03;;;;;;;18.00;8.10;;;14.50;99.90;;;;;;6160971;23;20077;-65
2023/06/06 06:37:30;;;;;;;12.40;7.88;;;14.60;99.90;;;;;;6186488;23;20374;-65
2023/06/06 06:39:57;;;;;;;17.17;8.57;;;14.60;99.90;;;;;;6189247;23;20017;-65
2023/06/06 06:42:23;;;;;;;13.45;8.07;;;14.60;99.90;;;;;;6188976;23;20102;-65
2023/06/06 06:44:50;;;;;;;18.50;8.90;;;14.70;99.90;;;;;;6187642;23;20029;-65
2023/06/06 06:47:16;;;;;;;20.15;8.95;;;14.80;99.90;;;;;;6190306;23;20099;-65
2023/06/06 06:49:42;;;;;;;14.25;8.50;;;14.90;99.90;;;;;;6188018;23;20020;-65
2023/06/06 06:52:11;;;;;;;11.63;8.13;;;15.00;99.90;;;;;;6190053;23;20020;-64
2023/06/06 06:54:54;;;;;;;17.80;7.85;;;15.00;99.90;;;;;;6188344;23;20017;-65
2023/06/06 06:57:26;;;;;;;12.65;7.70;;;15.00;99.90;;;;;;6188930;23;20045;-65
2023/06/06 06:59:53;;;;;;;16.08;9.35;;;15.00;99.90;;;;;;6190062;23;20038;-65
2023/06/06 07:02:19;;;;;;;13.63;9.25;;;15.30;99.90;;;;;;6188334;23;20073;-64
2023/06/06 07:04:47;;;;;;;13.48;7.45;;;15.30;99.90;;;;;;6163916;23;20025;-65
2023/06/06 07:07:16;;;;;;;11.55;6.25;;;15.20;99.90;;;;;;6188329;23;20526;-65
2023/06/06 07:09:45;;;;;;;13.40;7.30;;;15.30;99.90;;;;;;6190494;23;20032;-65
2023/06/06 07:12:12;;;;;;;15.00;7.15;;;15.30;99.90;;;;;;6190935;23;20036;-65
2023/06/06 07:14:38;;;;;;;12.43;7.55;;;15.40;99.90;;;;;;6193593;23;20021;-65
2023/06/06 07:17:05;;;;;;;14.63;7.40;;;15.40;99.90;;;;;;6192906;23;20441;-65
2023/06/06 07:19:31;;;;;;;13.38;6.57;;;15.30;99.90;;;;;;6198661;23;20076;-65
2023/06/06 07:21:57;;;;;;;14.65;5.75;;;15.50;99.90;;;;;;6200904;23;20028;-65
2023/06/06 07:24:23;;;;;;;10.27;5.03;;;15.50;99.90;;;;;;6201646;23;20027;-66
2023/06/06 07:26:51;;;;;;;10.60;6.30;;;15.50;99.90;;;;;;6202543;23;20021;-65
2023/06/06 07:29:18;;;;;;;11.13;5.30;;;15.60;99.90;;;;;;6198589;23;20328;-65
2023/06/06 07:31:44;;;;;;;11.40;4.85;;;15.70;99.90;;;;;;6198145;23;20031;-66
2023/06/06 07:34:10;;;;;;;7.18;4.30;;;15.70;99.90;;;;;;6194470;23;20327;-65
2023/06/06 07:36:36;;;;;;;8.57;5.70;;;15.80;99.90;;;;;;6189762;23;20516;-67
2023/06/06 07:39:02;;;;;;;10.57;4.40;;;15.90;99.90;;;;;;6163759;23;20174;-65
2023/06/06 07:41:33;;;;;;;10.48;4.43;;;15.90;99.90;;;;;;6187036;23;20028;-65
2023/06/06 07:43:59;;;;;;;6.82;4.18;;;16.00;99.90;;;;;;6189148;23;20020;-65
2023/06/06 07:46:25;;;;;;;6.15;4.20;;;16.00;99.90;;;;;;6188052;23;20036;-65
2023/06/06 07:48:51;;;;;;;10.32;5.72;;;16.10;99.90;;;;;;6187857;23;20510;-65
2023/06/06 07:51:17;;;;;;;10.27;4.40;;;16.20;99.90;;;;;;6189596;23;20024;-66
2023/06/06 07:53:43;;;;;;;8.00;4.55;;;16.20;99.90;;;;;;6187330;23;20028;-65
2023/06/06 07:56:15;;;;;;;8.18;4.68;;;16.20;99.90;;;;;;6188861;23;20144;-65
2023/06/06 07:58:43;;;;;;;9.77;4.43;;;16.20;99.90;;;;;;6186469;23;20021;-65
2023/06/06 08:01:12;;;;;;;9.70;5.28;;;16.30;99.90;;;;;;6188568;23;20040;-65
2023/06/06 08:03:39;;;;;;;10.13;4.80;;;16.40;99.90;;;;;;6188553;23;20430;-65
2023/06/06 08:06:05;;;;;;;14.07;5.05;;;16.40;99.90;;;;;;6188150;23;20032;-65
2023/06/06 08:08:31;;;;;;;7.72;4.20;;;16.60;99.90;;;;;;6189907;23;20027;-65
2023/06/06 08:10:57;;;;;;;11.45;4.90;;;16.70;99.90;;;;;;6187093;23;20095;-65
2023/06/06 08:13:23;;;;;;;9.30;4.75;;;16.70;99.90;;;;;;6189329;23;20024;-65
2023/06/06 08:15:48;;;;;;;9.45;4.82;;;16.70;99.90;;;;;;6187099;23;20017;-65
2023/06/06 08:18:14;;;;;;;7.82;5.07;;;16.90;99.90;;;;;;6165014;23;20025;-64
2023/06/06 08:20:40;;;;;;;11.73;5.30;;;17.00;99.90;;;;;;6195612;23;20512;-65
2023/06/06 08:23:06;;;;;;;12.55;5.80;;;16.80;99.90;;;;;;6197773;23;20021;-66
2023/06/06 08:25:33;;;;;;;11.55;5.88;;;16.80;99.90;;;;;;6194269;23;20023;-65
2023/06/06 08:27:59;;;;;;;10.63;5.18;;;17.00;99.90;;;;;;6188570;23;20576;-65
2023/06/06 08:30:25;;;;;;;7.95;4.88;;;16.90;99.90;;;;;;6189290;23;20025;-65
2023/06/06 08:32:51;;;;;;;9.30;5.35;;;17.00;99.90;;;;;;6187317;23;20025;-65
2023/06/06 08:35:19;;;;;;;10.88;5.82;;;17.20;99.90;;;;;;6188839;23;20012;-65
2023/06/06 08:37:47;;;;;;;13.15;6.22;;;17.20;99.90;;;;;;6188018;23;20025;-65
2023/06/06 08:40:12;;;;;;;14.45;5.95;;;17.20;99.90;;;;;;6161167;23;20461;-65
2023/06/06 08:42:45;;;;;;;11.05;6.55;;;17.30;99.90;;;;;;6187422;23;20070;-65
2023/06/06 08:45:11;;;;;;;14.35;6.60;;;17.30;99.90;;;;;;6188890;23;20061;-65
2023/06/06 08:47:42;;;;;;;9.73;6.05;;;17.40;99.90;;;;;;6193044;23;20036;-65
2023/06/06 08:50:08;;;;;;;11.30;6.72;;;17.50;99.90;;;;;;6190068;23;20066;-65
2023/06/06 08:52:35;;;;;;;12.05;6.32;;;17.60;99.90;;;;;;6188234;23;20540;-66
2023/06/06 08:55:06;;;;;;;11.73;6.47;;;17.70;99.90;;;;;;6187432;23;20016;-66
2023/06/06 08:57:33;;;;;;;11.48;7.10;;;17.70;99.90;;;;;;6187705;23;20028;-65
2023/06/06 09:00:11;;;;;;;13.50;6.95;;;17.80;99.90;;;;;;6188581;23;20024;-65
2023/06/06 09:02:40;;;;;;;14.57;6.88;;;17.80;99.90;;;;;;6160055;23;20028;-66
2023/06/06 09:05:08;;;;;;;15.00;7.00;;;17.80;99.90;;;;;;6188420;23;20060;-65
2023/06/06 09:07:34;;;;;;;19.38;7.20;;;17.90;99.90;;;;;;6187032;23;20126;-65
2023/06/06 09:10:00;;;;;;;10.15;6.30;;;17.90;99.90;;;;;;6187671;23;20124;-65
2023/06/06 09:12:26;;;;;;;10.18;5.82;;;18.00;99.90;;;;;;6188014;23;20021;-65
2023/06/06 09:14:52;;;;;;;13.45;6.10;;;18.00;99.90;;;;;;6187193;23;20084;-71
2023/06/06 09:17:18;;;;;;;10.52;4.85;;;18.10;99.90;;;;;;6161934;23;20021;-65
2023/06/06 09:19:49;;;;;;;12.95;5.78;;;18.10;99.90;;;;;;6186519;23;20020;-66
2023/06/06 09:22:15;;;;;;;8.55;4.53;;;18.10;99.90;;;;;;6188582;23;20099;-65
2023/06/06 09:24:45;;;;;;;8.25;4.03;;;18.30;99.90;;;;;;6186200;23;20374;-66
2023/06/06 09:27:27;;;;;;;9.57;4.78;;;18.40;99.90;;;;;;6187676;23;20092;-66
2023/06/06 09:29:53;;;;;;;9.82;4.10;;;18.40;99.90;;;;;;6188345;23;20164;-65
2023/06/06 09:32:27;;;;;;;15.35;4.97;;;18.50;99.90;;;;;;6186230;23;20057;-65
2023/06/06 09:35:03;;;;;;;9.55;4.63;;;18.50;99.90;;;;;;6188426;23;20730;-65
2023/06/06 09:37:30;;;;;;;11.45;3.88;;;18.70;99.90;;;;;;6186257;23;20025;-65
2023/06/06 09:40:15;;;;;;;10.30;4.80;;;18.80;99.90;;;;;;6187545;23;20096;-65
2023/06/06 09:42:48;;;;;;;9.05;4.45;;;18.90;99.90;;;;;;6161611;23;20025;-70
2023/06/06 09:45:19;;;;;;;8.20;4.28;;;19.00;99.90;;;;;;6186121;23;20104;-66
2023/06/06 09:47:49;;;;;;;7.95;4.38;;;19.00;99.90;;;;;;6188247;23;20039;-67
2023/06/06 09:50:16;;;;;;;7.63;4.80;;;19.00;99.90;;;;;;6186602;23;20036;-66
2023/06/06 09:52:42;;;;;;;10.07;4.07;;;19.00;99.90;;;;;;6188019;23;20021;-66
2023/06/06 09:55:11;;;;;;;9.88;4.03;;;19.00;99.90;;;;;;6187941;23;20382;-69
2023/06/06 09:57:38;;;;;;;10.25;4.28;;;19.10;99.90;;;;;;6187353;23;20027;-66
2023/06/06 10:00:10;;;;;;;6.20;3.60;;;19.10;99.90;;;;;;6188942;23;20021;-65
2023/06/06 10:02:40;;;;;;;11.93;4.35;;;19.10;99.90;;;;;;6185529;23;20553;-66
2023/06/06 10:05:07;;;;;;;7.88;4.00;;;19.10;99.90;;;;;;6187862;23;20017;-66
2023/06/06 10:07:33;;;;;;;9.20;4.20;;;19.10;99.90;;;;;;6186276;23;20040;-66
2023/06/06 10:09:59;;;;;;;6.35;4.13;;;19.10;99.90;;;;;;6187447;23;20553;-66
2023/06/06 10:12:29;;;;;;;10.10;3.90;;;19.20;99.90;;;;;;6187722;23;20077;-66
2023/06/06 10:14:56;;;;;;;7.25;3.90;;;19.20;99.90;;;;;;6188797;23;20017;-67
2023/06/06 10:17:24;;;;;;;8.75;4.07;;;19.30;99.90;;;;;;6160755;23;20021;-66
2023/06/06 10:19:55;;;;;;;8.02;3.90;;;19.20;99.90;;;;;;6161885;23;20021;-66
2023/06/06 10:22:21;;;;;;;6.57;3.97;;;19.30;99.90;;;;;;6205739;23;20028;-66
2023/06/06 10:24:48;;;;;;;11.93;3.95;;;19.30;99.90;;;;;;6200698;23;20048;-66
2023/06/06 10:27:21;;;;;;;8.18;5.00;;;19.40;99.90;;;;;;6174180;23;20021;-66
2023/06/06 10:30:37;;;;;;;10.52;4.28;;;19.50;99.90;;;;;;6171341;23;20032;-66
2023/06/06 10:33:12;;;;;;;7.20;3.92;;;19.50;99.90;;;;;;6181401;23;20040;-66
2023/06/06 10:35:39;;;;;;;11.40;4.43;;;19.70;99.90;;;;;;6189607;23;20021;-66
2023/06/06 10:38:09;;;;;;;6.95;3.92;;;19.60;99.90;;;;;;6189445;23;20029;-66
2023/06/06 10:40:53;;;;;;;9.35;4.57;;;19.60;99.90;;;;;;6188051;23;20052;-66
2023/06/06 10:43:41;;;;;;;8.80;4.47;;;19.60;99.90;;;;;;6190058;23;20025;-66
2023/06/06 10:46:08;;;;;;;11.43;4.70;;;19.70;99.90;;;;;;6169052;23;20017;-65
2023/06/06 10:48:42;;;;;;;8.32;4.38;;;19.70;99.90;;;;;;6162840;23;20352;-66
2023/06/06 10:51:23;;;;;;;7.22;4.15;;;19.70;99.90;;;;;;6189601;23;20033;-66
2023/06/06 10:54:14;;;;;;;7.15;4.70;;;19.70;99.90;;;;;;6187972;23;20064;-67
2023/06/06 10:56:47;;;;;;;10.50;4.43;;;20.00;99.90;;;;;;6189563;23;20097;-66
2023/06/06 10:59:13;;;;;;;;;;;19.80;99.90;;;;;;6189314;23;20024;-66
2023/06/06 11:01:44;;;;;;;7.53;4.32;;;19.80;99.90;;;;;;6188729;23;19923;-66
2023/06/06 11:04:20;;;;;;;12.35;4.90;;;19.90;99.90;;;;;;6190012;23;20145;-66
2023/06/06 11:06:48;;;;;;;7.03;3.75;;;20.00;99.90;;;;;;6188032;23;20084;-66
2023/06/06 11:09:22;;;;;;;8.27;4.15;;;19.90;99.90;;;;;;6189881;23;20017;-66
2023/06/06 11:11:50;;;;;;;10.05;4.32;;;20.00;99.90;;;;;;6188525;23;20048;-66
2023/06/06 11:14:24;;;;;;;11.07;4.07;;;20.00;99.90;;;;;;6189699;23;20021;-66
2023/06/06 11:16:59;;;;;;;7.40;3.88;;;20.00;99.90;;;;;;6190091;23;20021;-66
2023/06/06 11:19:31;;;;;;;12.25;4.45;;;20.10;99.90;;;;;;6187924;23;20029;-66
2023/06/06 11:21:59;;;;;;;7.53;4.05;;;20.10;99.90;;;;;;6190034;23;20087;-66
2023/06/06 11:24:32;;;;;;;10.65;4.40;;;20.10;99.90;;;;;;6187628;23;20438;-68
2023/06/06 11:26:58;;;;;;;9.27;4.03;;;20.20;99.90;;;;;;6162669;23;20013;-65
2023/06/06 11:29:26;;;;;;;8.40;4.25;;;20.20;99.90;;;;;;6188973;23;20636;-66
2023/06/06 11:31:52;;;;;;;5.40;3.67;;;20.40;99.90;;;;;;6161948;23;20025;-66
2023/06/06 11:34:20;;;;;;;10.60;4.35;;;20.40;99.90;;;;;;6189108;23;20533;-66
2023/06/06 11:36:51;;;;;;;7.63;4.28;;;20.40;99.90;;;;;;6187683;23;20060;-66
2023/06/06 11:39:20;;;;;;;6.88;3.70;;;20.30;99.90;;;;;;6189413;23;20535;-66
2023/06/06 11:41:49;;;;;;;7.53;4.07;;;20.30;99.90;;;;;;6187751;23;20045;-69
2023/06/06 11:44:17;;;;;;;9.32;3.90;;;20.20;99.90;;;;;;6162082;23;20035;-66
2023/06/06 11:46:50;;;;;;;8.55;5.03;;;20.30;99.90;;;;;;6188884;23;20045;-66
2023/06/06 11:49:17;;;;;;;9.05;3.90;;;20.30;99.90;;;;;;6187438;23;20743;-65
2023/06/06 11:51:53;;;;;;;5.68;4.65;;;20.40;99.90;;;;;;6189611;23;20024;-66
2023/06/06 11:54:19;;;;;;;7.97;4.10;;;20.40;99.90;;;;;;6187650;23;20070;-65
2023/06/06 11:56:45;;;;;;;8.45;4.28;;;20.40;99.90;;;;;;6188842;23;20020;-66
2023/06/06 11:59:12;;;;;;;9.40;4.75;;;20.40;99.90;;;;;;6188211;23;20021;-66
2023/06/06 12:01:46;;;;;;;9.88;3.83;;;20.60;99.90;;;;;;6188076;23;20029;-66
2023/06/06 12:04:12;;;;;;;7.82;3.60;;;20.60;99.90;;;;;;6189763;23;20017;-67
2023/06/06 12:06:51;;;;;;;10.50;4.35;;;20.60;99.90;;;;;;6187652;23;20017;-65
2023/06/06 12:09:19;;;;;;;10.38;3.92;;;20.60;99.90;;;;;;6189596;23;20063;-66
2023/06/06 12:11:56;;;;;;;9.35;4.30;;;20.60;99.90;;;;;;6161163;23;20025;-66
2023/06/06 12:14:23;;;;;;;11.30;4.85;;;20.60;99.90;;;;;;6188725;23;20027;-66
2023/06/06 12:16:50;;;;;;;8.10;3.80;;;20.70;99.90;;;;;;6189308;23;20599;-66
2023/06/06 12:19:16;;;;;;;12.10;4.72;;;20.60;99.90;;;;;;6187505;23;20674;-66
2023/06/06 12:21:53;;;;;;;8.15;3.58;;;20.60;99.90;;;;;;6189327;23;20024;-66
2023/06/06 12:24:26;;;;;;;11.98;5.15;;;20.70;99.90;;;;;;6187185;23;20039;-66
2023/06/06 12:26:56;;;;;;;6.78;4.00;;;20.60;99.90;;;;;;6162956;23;20028;-66
2023/06/06 12:29:33;;;;;;;8.68;4.50;;;20.60;99.90;;;;;;6137441;23;20063;-66
2023/06/06 12:32:17;;;;;;;6.47;3.70;;;20.70;99.90;;;;;;6161020;23;20021;-67
2023/06/06 12:34:44;;;;;;;8.10;3.97;;;20.80;99.90;;;;;;6189349;23;20761;-66
2023/06/06 12:37:10;;;;;;;8.27;3.78;;;20.90;99.90;;;;;;6187275;23;20021;-66
2023/06/06 12:39:43;;;;;;;11.43;4.32;;;21.00;99.90;;;;;;6190046;23;20060;-66
2023/06/06 12:42:16;;;;;;;6.03;3.70;;;20.90;99.90;;;;;;6189089;23;20020;-65
2023/06/06 12:44:43;;;;;;;8.52;3.97;;;20.80;99.90;;;;;;6189212;23;20041;-66
2023/06/06 12:47:12;;;;;;;9.30;4.05;;;20.90;99.90;;;;;;6191256;23;20021;-66